sensor_id;sensor_type;location;lat;lon;timestamp;pressure;altitude;pressure_sealevel;temperature;humidity
48774;BME280;34576;0.000;0.000;2023-03-16T00:00:43;96894.63;;;16.95;65.33
48774;BME280;34576;0.000;0.000;2023-03-16T00:07:43;96890.13;;;17.01;64.38
48774;BME280;34576;0.000;0.000;2023-03-16T00:14:44;96893.84;;;17.00;66.55
48774;BME280;34576;0.000;0.000;2023-03-16T00:21:45;96901.53;;;17.01;66.98
48774;BME280;34576;0.000;0.000;2023-03-16T00:28:45;96898.09;;;16.96;67.47
48774;BME280;34576;0.000;0.000;2023-03-16T00:35:46;96896.75;;;16.98;68.08
48774;BME280;34576;0.000;0.000;2023-03-16T00:42:49;96898.63;;;16.98;68.13
48774;BME280;34576;0.000;0.000;2023-03-16T00:49:50;96888.00;;;17.03;67.13
48774;BME280;34576;0.000;0.000;2023-03-16T00:56:50;96874.72;;;17.08;68.07
48774;BME280;34576;0.000;0.000;2023-03-16T01:03:50;96866.22;;;17.06;68.60
48774;BME280;34576;0.000;0.000;2023-03-16T01:10:51;96860.91;;;17.16;67.17
48774;BME280;34576;0.000;0.000;2023-03-16T01:17:51;96851.88;;;17.28;67.06
48774;BME280;34576;0.000;0.000;2023-03-16T01:24:51;96857.72;;;17.30;65.93
48774;BME280;34576;0.000;0.000;2023-03-16T01:31:51;96840.16;;;17.34;66.33
48774;BME280;34576;0.000;0.000;2023-03-16T01:38:52;96843.09;;;17.32;64.58
48774;BME280;34576;0.000;0.000;2023-03-16T01:52:56;96841.75;;;17.30;65.06
48774;BME280;34576;0.000;0.000;2023-03-16T02:07:50;96837.78;;;17.27;67.34
48774;BME280;34576;0.000;0.000;2023-03-16T02:14:50;96835.66;;;17.24;66.20
48774;BME280;34576;0.000;0.000;2023-03-16T02:22:09;96826.88;;;17.18;66.45
48774;BME280;34576;0.000;0.000;2023-03-16T02:36:14;96817.84;;;17.19;67.18
48774;BME280;34576;0.000;0.000;2023-03-16T02:43:16;96815.72;;;17.27;65.04
48774;BME280;34576;0.000;0.000;2023-03-16T02:50:41;96814.66;;;17.28;66.89
48774;BME280;34576;0.000;0.000;2023-03-16T02:57:42;96794.97;;;17.18;67.15
48774;BME280;34576;0.000;0.000;2023-03-16T03:04:47;96776.91;;;17.20;67.01
48774;BME280;34576;0.000;0.000;2023-03-16T03:11:48;96784.88;;;17.25;64.63
48774;BME280;34576;0.000;0.000;2023-03-16T03:18:50;96780.59;;;17.40;62.65
48774;BME280;34576;0.000;0.000;2023-03-16T03:25:55;96782.47;;;17.45;63.93
48774;BME280;34576;0.000;0.000;2023-03-16T03:32:56;96777.94;;;17.40;63.50
48774;BME280;34576;0.000;0.000;2023-03-16T03:39:57;96766.78;;;17.43;64.04
48774;BME280;34576;0.000;0.000;2023-03-16T03:46:59;96767.56;;;17.49;62.54
48774;BME280;34576;0.000;0.000;2023-03-16T03:54:00;96775.28;;;17.45;62.84
48774;BME280;34576;0.000;0.000;2023-03-16T04:01:22;96765.16;;;17.47;63.70
48774;BME280;34576;0.000;0.000;2023-03-16T04:08:23;96762.78;;;17.46;63.38
48774;BME280;34576;0.000;0.000;2023-03-16T04:15:24;96763.59;;;17.46;62.67
48774;BME280;34576;0.000;0.000;2023-03-16T04:22:50;96767.31;;;17.45;63.77
48774;BME280;34576;0.000;0.000;2023-03-16T04:29:57;96772.63;;;17.40;65.03
48774;BME280;34576;0.000;0.000;2023-03-16T04:36:59;96763.59;;;17.25;68.47
48774;BME280;34576;0.000;0.000;2023-03-16T04:43:59;96757.25;;;17.16;68.82
48774;BME280;34576;0.000;0.000;2023-03-16T04:51:00;96753.53;;;17.17;68.77
48774;BME280;34576;0.000;0.000;2023-03-16T04:58:05;96740.47;;;17.16;69.30
48774;BME280;34576;0.000;0.000;2023-03-16T05:05:09;96742.09;;;17.17;69.20
48774;BME280;34576;0.000;0.000;2023-03-16T05:12:13;96725.88;;;17.13;69.54
48774;BME280;34576;0.000;0.000;2023-03-16T05:19:16;96719.50;;;17.14;69.62
48774;BME280;34576;0.000;0.000;2023-03-16T05:26:17;96718.97;;;17.17;69.70
48774;BME280;34576;0.000;0.000;2023-03-16T05:33:20;96715.75;;;17.25;67.66
48774;BME280;34576;0.000;0.000;2023-03-16T05:40:24;96722.19;;;17.09;65.84
48774;BME280;34576;0.000;0.000;2023-03-16T05:47:33;96738.69;;;12.28;46.96
48774;BME280;34576;0.000;0.000;2023-03-16T05:54:35;96758.78;;;12.00;47.37
48774;BME280;34576;0.000;0.000;2023-03-16T06:01:37;96743.47;;;15.84;47.27
48774;BME280;34576;0.000;0.000;2023-03-16T06:08:40;96740.44;;;16.38;50.92
48774;BME280;34576;0.000;0.000;2023-03-16T06:15:43;96745.75;;;16.49;53.29
48774;BME280;34576;0.000;0.000;2023-03-16T06:22:44;96753.72;;;16.33;55.99
48774;BME280;34576;0.000;0.000;2023-03-16T06:29:46;96753.19;;;16.36;56.91
48774;BME280;34576;0.000;0.000;2023-03-16T06:36:46;96737.56;;;16.50;57.30
48774;BME280;34576;0.000;0.000;2023-03-16T06:43:47;96736.50;;;16.62;57.78
48774;BME280;34576;0.000;0.000;2023-03-16T06:50:47;96741.28;;;16.65;58.23
48774;BME280;34576;0.000;0.000;2023-03-16T06:57:53;96741.81;;;16.67;58.93
48774;BME280;34576;0.000;0.000;2023-03-16T07:04:53;96750.06;;;16.70;59.59
48774;BME280;34576;0.000;0.000;2023-03-16T07:11:54;96754.03;;;16.73;59.92
48774;BME280;34576;0.000;0.000;2023-03-16T07:18:54;96724.28;;;16.76;60.02
48774;BME280;34576;0.000;0.000;2023-03-16T07:25:54;96713.41;;;16.78;60.23
48774;BME280;34576;0.000;0.000;2023-03-16T07:32:55;96707.00;;;16.79;60.31
48774;BME280;34576;0.000;0.000;2023-03-16T07:39:57;96681.25;;;16.79;60.47
48774;BME280;34576;0.000;0.000;2023-03-16T07:46:59;96658.66;;;16.77;60.43
48774;BME280;34576;0.000;0.000;2023-03-16T07:54:02;96652.03;;;16.74;60.93
48774;BME280;34576;0.000;0.000;2023-03-16T08:01:07;96678.59;;;16.74;60.83
48774;BME280;34576;0.000;0.000;2023-03-16T08:08:10;96681.78;;;16.71;60.80
48774;BME280;34576;0.000;0.000;2023-03-16T08:15:12;96672.22;;;16.75;60.98
48774;BME280;34576;0.000;0.000;2023-03-16T08:22:13;96676.75;;;16.69;60.89
48774;BME280;34576;0.000;0.000;2023-03-16T08:29:17;96683.13;;;16.73;60.91
48774;BME280;34576;0.000;0.000;2023-03-16T08:36:18;96672.22;;;16.70;60.97
48774;BME280;34576;0.000;0.000;2023-03-16T08:43:22;96668.78;;;16.69;61.09
48774;BME280;34576;0.000;0.000;2023-03-16T08:50:24;96676.47;;;16.71;61.24
48774;BME280;34576;0.000;0.000;2023-03-16T08:57:25;96682.84;;;16.70;61.04
48774;BME280;34576;0.000;0.000;2023-03-16T09:04:26;96666.13;;;16.69;61.25
48774;BME280;34576;0.000;0.000;2023-03-16T09:11:27;96658.16;;;16.69;61.16
48774;BME280;34576;0.000;0.000;2023-03-16T09:18:29;96665.31;;;16.74;61.15
48774;BME280;34576;0.000;0.000;2023-03-16T09:25:30;96629.72;;;16.70;61.22
48774;BME280;34576;0.000;0.000;2023-03-16T09:32:31;96628.16;;;16.69;61.26
48774;BME280;34576;0.000;0.000;2023-03-16T09:39:32;96625.22;;;16.70;61.45
48774;BME280;34576;0.000;0.000;2023-03-16T09:46:34;96604.75;;;16.71;61.31
48774;BME280;34576;0.000;0.000;2023-03-16T09:53:38;96598.94;;;16.69;61.45
48774;BME280;34576;0.000;0.000;2023-03-16T10:08:29;96616.97;;;16.72;61.47
48774;BME280;34576;0.000;0.000;2023-03-16T10:15:31;96595.47;;;16.73;61.49
48774;BME280;34576;0.000;0.000;2023-03-16T10:22:36;96592.53;;;16.75;61.67
48774;BME280;34576;0.000;0.000;2023-03-16T10:29:38;96588.56;;;16.78;61.73
48774;BME280;34576;0.000;0.000;2023-03-16T10:36:39;96595.19;;;16.75;61.61
48774;BME280;34576;0.000;0.000;2023-03-16T10:43:41;96597.31;;;16.73;61.78
48774;BME280;34576;0.000;0.000;2023-03-16T10:50:42;96599.44;;;16.76;61.86
48774;BME280;34576;0.000;0.000;2023-03-16T10:57:48;96597.84;;;16.80;61.73
48774;BME280;34576;0.000;0.000;2023-03-16T11:04:49;96607.38;;;16.81;61.77
48774;BME280;34576;0.000;0.000;2023-03-16T11:11:49;96597.56;;;16.77;61.91
48774;BME280;34576;0.000;0.000;2023-03-16T11:19:01;96581.91;;;16.80;61.92
48774;BME280;34576;0.000;0.000;2023-03-16T11:26:05;96576.06;;;16.78;62.06
48774;BME280;34576;0.000;0.000;2023-03-16T11:33:07;96577.66;;;16.79;62.05
48774;BME280;34576;0.000;0.000;2023-03-16T11:54:39;96569.13;;;16.82;62.13
48774;BME280;34576;0.000;0.000;2023-03-16T12:16:00;96555.84;;;16.87;62.30
48774;BME280;34576;0.000;0.000;2023-03-16T12:23:06;96550.53;;;16.87;62.78
48774;BME280;34576;0.000;0.000;2023-03-16T12:51:43;96515.22;;;16.92;62.87
48774;BME280;34576;0.000;0.000;2023-03-16T12:58:48;96516.53;;;16.95;62.71
48774;BME280;34576;0.000;0.000;2023-03-16T13:05:50;96509.63;;;16.88;63.06
48774;BME280;34576;0.000;0.000;2023-03-16T13:12:51;96519.72;;;16.91;63.06
48774;BME280;34576;0.000;0.000;2023-03-16T13:20:26;96501.09;;;16.91;63.12
48774;BME280;34576;0.000;0.000;2023-03-16T13:34:21;96485.16;;;16.91;62.97
48774;BME280;34576;0.000;0.000;2023-03-16T13:41:22;96483.06;;;16.94;63.04
48774;BME280;34576;0.000;0.000;2023-03-16T13:48:23;96480.91;;;16.96;63.15
48774;BME280;34576;0.000;0.000;2023-03-16T13:55:30;96478.25;;;16.96;63.27
48774;BME280;34576;0.000;0.000;2023-03-16T14:02:34;96470.56;;;16.94;63.10
48774;BME280;34576;0.000;0.000;2023-03-16T14:09:35;96450.38;;;16.93;63.14
48774;BME280;34576;0.000;0.000;2023-03-16T14:16:35;96453.81;;;16.94;63.26
48774;BME280;34576;0.000;0.000;2023-03-16T14:23:37;96441.03;;;16.96;63.30
48774;BME280;34576;0.000;0.000;2023-03-16T14:30:48;96440.25;;;16.95;63.39
48774;BME280;34576;0.000;0.000;2023-03-16T14:37:48;96444.78;;;16.95;63.52
48774;BME280;34576;0.000;0.000;2023-03-16T14:44:49;96430.41;;;16.96;63.40
48774;BME280;34576;0.000;0.000;2023-03-16T14:51:50;96422.97;;;16.98;63.24
48774;BME280;34576;0.000;0.000;2023-03-16T14:58:51;96415.03;;;16.93;63.67
48774;BME280;34576;0.000;0.000;2023-03-16T15:05:52;96425.66;;;16.93;63.39
48774;BME280;34576;0.000;0.000;2023-03-16T15:12:53;96422.78;;;16.89;63.70
48774;BME280;34576;0.000;0.000;2023-03-16T15:19:53;96424.63;;;16.88;63.77
48774;BME280;34576;0.000;0.000;2023-03-16T15:26:53;96434.47;;;16.88;63.42
48774;BME280;34576;0.000;0.000;2023-03-16T15:33:54;96427.50;;;16.87;63.62
48774;BME280;34576;0.000;0.000;2023-03-16T15:40:54;96445.59;;;16.85;63.66
48774;BME280;34576;0.000;0.000;2023-03-16T15:47:55;96450.09;;;16.84;63.46
48774;BME280;34576;0.000;0.000;2023-03-16T15:54:55;96456.22;;;16.85;63.64
48774;BME280;34576;0.000;0.000;2023-03-16T16:01:56;96448.53;;;16.83;63.53
48774;BME280;34576;0.000;0.000;2023-03-16T16:08:56;96455.19;;;16.81;63.47
48774;BME280;34576;0.000;0.000;2023-03-16T16:15:57;96445.63;;;16.80;63.37
48774;BME280;34576;0.000;0.000;2023-03-16T16:22:57;96445.91;;;16.78;63.60
48774;BME280;34576;0.000;0.000;2023-03-16T16:29:59;96447.50;;;16.79;63.39
48774;BME280;34576;0.000;0.000;2023-03-16T16:36:59;96445.91;;;16.78;63.47
48774;BME280;34576;0.000;0.000;2023-03-16T16:44:00;96437.94;;;16.78;63.34
48774;BME280;34576;0.000;0.000;2023-03-16T16:51:13;96441.63;;;16.77;63.43
48774;BME280;34576;0.000;0.000;2023-03-16T16:58:15;96431.28;;;16.76;63.12
48774;BME280;34576;0.000;0.000;2023-03-16T17:05:20;96441.13;;;16.75;63.32
48774;BME280;34576;0.000;0.000;2023-03-16T17:12:21;96435.03;;;16.74;63.16
48774;BME280;34576;0.000;0.000;2023-03-16T17:19:26;96436.09;;;16.73;63.15
48774;BME280;34576;0.000;0.000;2023-03-16T17:33:27;96444.63;;;16.70;62.96
48774;BME280;34576;0.000;0.000;2023-03-16T17:40:28;96436.09;;;16.68;62.89
48774;BME280;34576;0.000;0.000;2023-03-16T17:47:28;96439.56;;;16.69;62.74
48774;BME280;34576;0.000;0.000;2023-03-16T17:54:30;96440.63;;;16.68;62.74
48774;BME280;34576;0.000;0.000;2023-03-16T18:01:30;96434.25;;;16.69;62.62
48774;BME280;34576;0.000;0.000;2023-03-16T18:08:34;96428.94;;;16.69;62.38
48774;BME280;34576;0.000;0.000;2023-03-16T18:15:35;96420.44;;;16.67;62.36
48774;BME280;34576;0.000;0.000;2023-03-16T18:22:36;96424.69;;;16.68;62.40
48774;BME280;34576;0.000;0.000;2023-03-16T18:29:36;96420.97;;;16.69;62.40
48774;BME280;34576;0.000;0.000;2023-03-16T18:36:37;96424.44;;;16.64;62.21
48774;BME280;34576;0.000;0.000;2023-03-16T18:43:38;96426.84;;;16.61;62.22
48774;BME280;34576;0.000;0.000;2023-03-16T18:50:39;96425.25;;;16.60;62.31
48774;BME280;34576;0.000;0.000;2023-03-16T18:57:42;96419.44;;;16.58;62.17
48774;BME280;34576;0.000;0.000;2023-03-16T19:04:44;96419.44;;;16.58;62.12
48774;BME280;34576;0.000;0.000;2023-03-16T19:11:44;96416.22;;;16.61;62.07
48774;BME280;34576;0.000;0.000;2023-03-16T19:18:45;96414.91;;;16.58;62.15
48774;BME280;34576;0.000;0.000;2023-03-16T19:25:45;96411.47;;;16.58;62.05
48774;BME280;34576;0.000;0.000;2023-03-16T19:32:46;96407.22;;;16.56;61.80
48774;BME280;34576;0.000;0.000;2023-03-16T19:39:46;96410.94;;;16.55;61.87
48774;BME280;34576;0.000;0.000;2023-03-16T19:46:46;96399.75;;;16.59;61.60
48774;BME280;34576;0.000;0.000;2023-03-16T19:53:47;96405.88;;;16.59;61.50
48774;BME280;34576;0.000;0.000;2023-03-16T20:00:47;96401.84;;;16.67;61.86
48774;BME280;34576;0.000;0.000;2023-03-16T20:07:48;96405.06;;;16.64;61.94
48774;BME280;34576;0.000;0.000;2023-03-16T20:14:48;96396.81;;;16.65;61.48
48774;BME280;34576;0.000;0.000;2023-03-16T20:21:50;96387.50;;;16.68;61.78
48774;BME280;34576;0.000;0.000;2023-03-16T20:28:50;96380.06;;;16.70;62.03
48774;BME280;34576;0.000;0.000;2023-03-16T20:35:51;96377.44;;;16.65;62.49
48774;BME280;34576;0.000;0.000;2023-03-16T20:42:55;96372.63;;;16.67;63.02
48774;BME280;34576;0.000;0.000;2023-03-16T20:49:55;96372.06;;;16.75;62.91
48774;BME280;34576;0.000;0.000;2023-03-16T20:56:59;96361.94;;;16.77;63.13
48774;BME280;34576;0.000;0.000;2023-03-16T21:04:00;96353.97;;;16.77;63.04
48774;BME280;34576;0.000;0.000;2023-03-16T21:11:00;96367.25;;;16.82;63.44
48774;BME280;34576;0.000;0.000;2023-03-16T21:18:02;96358.72;;;16.85;64.07
48774;BME280;34576;0.000;0.000;2023-03-16T21:25:02;96347.28;;;16.90;64.00
48774;BME280;34576;0.000;0.000;2023-03-16T21:32:04;96349.66;;;16.97;64.70
48774;BME280;34576;0.000;0.000;2023-03-16T21:39:12;96355.25;;;16.90;64.66
48774;BME280;34576;0.000;0.000;2023-03-16T21:46:17;96341.97;;;16.90;64.11
48774;BME280;34576;0.000;0.000;2023-03-16T21:53:22;96334.53;;;16.92;63.20
48774;BME280;34576;0.000;0.000;2023-03-16T22:00:24;96328.13;;;16.98;63.56
48774;BME280;34576;0.000;0.000;2023-03-16T22:07:25;96323.63;;;16.99;63.94
48774;BME280;34576;0.000;0.000;2023-03-16T22:14:25;96320.16;;;16.98;63.54
48774;BME280;34576;0.000;0.000;2023-03-16T22:21:33;96314.56;;;17.00;62.54
48774;BME280;34576;0.000;0.000;2023-03-16T22:28:34;96294.31;;;17.04;62.96
48774;BME280;34576;0.000;0.000;2023-03-16T22:35:34;96284.47;;;17.04;61.52
48774;BME280;34576;0.000;0.000;2023-03-16T22:42:36;96286.59;;;17.07;61.79
48774;BME280;34576;0.000;0.000;2023-03-16T22:49:37;96288.44;;;17.07;61.58
48774;BME280;34576;0.000;0.000;2023-03-16T22:56:37;96277.00;;;17.12;60.64
48774;BME280;34576;0.000;0.000;2023-03-16T23:03:38;96287.88;;;17.10;61.49
48774;BME280;34576;0.000;0.000;2023-03-16T23:10:39;96281.78;;;17.10;60.60
48774;BME280;34576;0.000;0.000;2023-03-16T23:17:40;96273.53;;;17.11;60.80
48774;BME280;34576;0.000;0.000;2023-03-16T23:24:40;96278.28;;;17.14;60.38
48774;BME280;34576;0.000;0.000;2023-03-16T23:31:41;96276.72;;;17.13;59.86
48774;BME280;34576;0.000;0.000;2023-03-16T23:38:41;96266.63;;;17.10;60.11
48774;BME280;34576;0.000;0.000;2023-03-16T23:45:44;96263.72;;;17.12;60.14
48774;BME280;34576;0.000;0.000;2023-03-16T23:52:44;96262.34;;;17.14;59.97
48774;BME280;34576;0.000;0.000;2023-03-16T23:59:45;96267.66;;;17.14;60.01
